sensor_id;sensor_type;location;lat;lon;timestamp;pressure;altitude;pressure_sealevel;temperature;humidity
22862;BME280;11598;50.652;6.172;2023-09-08T00:03:36;96675.69;;;18.25;79.69
22862;BME280;11598;50.652;6.172;2023-09-08T00:13:37;96672.97;;;18.34;79.93
22862;BME280;11598;50.652;6.172;2023-09-08T00:23:37;96677.59;;;18.41;80.28
22862;BME280;11598;50.652;6.172;2023-09-08T00:33:37;96675.81;;;18.49;79.70
22862;BME280;11598;50.652;6.172;2023-09-08T00:43:38;96676.69;;;18.58;78.94
22862;BME280;11598;50.652;6.172;2023-09-08T00:53:39;96668.47;;;18.61;78.24
22862;BME280;11598;50.652;6.172;2023-09-08T01:03:39;96670.09;;;18.62;77.61
22862;BME280;11598;50.652;6.172;2023-09-08T01:13:39;96672.72;;;18.54;77.17
22862;BME280;11598;50.652;6.172;2023-09-08T01:24:32;96678.59;;;18.48;77.85
22862;BME280;11598;50.652;6.172;2023-09-08T01:34:37;96676.41;;;18.35;77.95
22862;BME280;11598;50.652;6.172;2023-09-08T01:44:39;96671.44;;;18.32;77.73
22862;BME280;11598;50.652;6.172;2023-09-08T01:54:40;96680.97;;;18.25;77.47
22862;BME280;11598;50.652;6.172;2023-09-08T02:04:40;96679.47;;;18.22;77.16
22862;BME280;11598;50.652;6.172;2023-09-08T02:14:40;96668.66;;;18.25;76.14
22862;BME280;11598;50.652;6.172;2023-09-08T02:24:41;96668.94;;;18.22;75.82
22862;BME280;11598;50.652;6.172;2023-09-08T02:34:41;96661.03;;;18.14;76.11
22862;BME280;11598;50.652;6.172;2023-09-08T02:44:42;96658.50;;;18.04;76.14
22862;BME280;11598;50.652;6.172;2023-09-08T02:54:43;96662.28;;;18.02;76.29
22862;BME280;11598;50.652;6.172;2023-09-08T03:04:43;96660.59;;;17.92;76.17
22862;BME280;11598;50.652;6.172;2023-09-08T03:14:44;96664.81;;;17.85;76.61
22862;BME280;11598;50.652;6.172;2023-09-08T03:24:45;96657.75;;;17.86;76.54
22862;BME280;11598;50.652;6.172;2023-09-08T03:34:45;96658.69;;;17.85;76.99
22862;BME280;11598;50.652;6.172;2023-09-08T03:44:45;96645.81;;;17.73;77.63
22862;BME280;11598;50.652;6.172;2023-09-08T03:54:45;96641.94;;;17.60;78.23
22862;BME280;11598;50.652;6.172;2023-09-08T04:04:46;96644.50;;;17.51;78.72
22862;BME280;11598;50.652;6.172;2023-09-08T04:14:46;96649.00;;;17.41;79.07
22862;BME280;11598;50.652;6.172;2023-09-08T04:24:47;96644.13;;;17.28;80.22
22862;BME280;11598;50.652;6.172;2023-09-08T04:34:47;96649.09;;;17.14;81.37
22862;BME280;11598;50.652;6.172;2023-09-08T04:44:49;96641.91;;;16.98;82.54
22862;BME280;11598;50.652;6.172;2023-09-08T04:54:49;96645.75;;;16.76;83.82
22862;BME280;11598;50.652;6.172;2023-09-08T05:04:49;96649.88;;;16.60;84.67
22862;BME280;11598;50.652;6.172;2023-09-08T05:14:50;96653.13;;;16.62;86.09
22862;BME280;11598;50.652;6.172;2023-09-08T05:24:55;96665.38;;;16.72;86.13
22862;BME280;11598;50.652;6.172;2023-09-08T05:34:56;96661.25;;;16.97;85.64
22862;BME280;11598;50.652;6.172;2023-09-08T05:44:56;96657.88;;;17.22;85.77
22862;BME280;11598;50.652;6.172;2023-09-08T05:54:57;96666.75;;;17.65;85.95
22862;BME280;11598;50.652;6.172;2023-09-08T06:04:57;96679.75;;;18.11;84.79
22862;BME280;11598;50.652;6.172;2023-09-08T06:14:58;96676.50;;;18.59;83.81
22862;BME280;11598;50.652;6.172;2023-09-08T06:24:58;96669.28;;;19.12;82.98
22862;BME280;11598;50.652;6.172;2023-09-08T06:34:58;96666.50;;;19.63;83.05
22862;BME280;11598;50.652;6.172;2023-09-08T06:44:59;96667.28;;;20.21;81.82
22862;BME280;11598;50.652;6.172;2023-09-08T06:54:59;96674.47;;;20.83;80.13
22862;BME280;11598;50.652;6.172;2023-09-08T07:05:00;96676.59;;;21.42;79.96
22862;BME280;11598;50.652;6.172;2023-09-08T07:15:08;96692.78;;;22.23;79.54
22862;BME280;11598;50.652;6.172;2023-09-08T07:25:09;96680.50;;;22.96;80.09
22862;BME280;11598;50.652;6.172;2023-09-08T07:35:09;96681.88;;;23.50;78.74
22862;BME280;11598;50.652;6.172;2023-09-08T07:45:14;96685.66;;;23.62;79.34
22862;BME280;11598;50.652;6.172;2023-09-08T07:55:15;96680.75;;;23.59;80.84
22862;BME280;11598;50.652;6.172;2023-09-08T08:05:15;96681.50;;;23.74;74.18
22862;BME280;11598;50.652;6.172;2023-09-08T08:15:19;96690.50;;;24.01;70.70
22862;BME280;11598;50.652;6.172;2023-09-08T08:25:20;96690.53;;;24.08;67.71
22862;BME280;11598;50.652;6.172;2023-09-08T08:35:21;96694.63;;;24.39;65.45
22862;BME280;11598;50.652;6.172;2023-09-08T08:45:23;96696.44;;;24.38;65.63
22862;BME280;11598;50.652;6.172;2023-09-08T08:55:25;96698.41;;;24.51;65.78
22862;BME280;11598;50.652;6.172;2023-09-08T09:05:26;96696.59;;;24.58;64.76
22862;BME280;11598;50.652;6.172;2023-09-08T09:15:30;96691.97;;;24.74;64.26
22862;BME280;11598;50.652;6.172;2023-09-08T09:25:32;96691.44;;;24.50;65.37
22862;BME280;11598;50.652;6.172;2023-09-08T09:35:47;96690.53;;;24.71;61.65
22862;BME280;11598;50.652;6.172;2023-09-08T09:45:48;96692.22;;;24.79;64.90
22862;BME280;11598;50.652;6.172;2023-09-08T09:55:49;96695.66;;;24.73;64.22
22862;BME280;11598;50.652;6.172;2023-09-08T10:05:49;96688.41;;;25.08;62.45
22862;BME280;11598;50.652;6.172;2023-09-08T10:15:50;96692.38;;;25.25;61.88
22862;BME280;11598;50.652;6.172;2023-09-08T10:25:56;96697.09;;;25.37;61.73
22862;BME280;11598;50.652;6.172;2023-09-08T10:36:00;96690.97;;;25.29;61.83
22862;BME280;11598;50.652;6.172;2023-09-08T10:46:08;96687.91;;;25.39;60.49
22862;BME280;11598;50.652;6.172;2023-09-08T10:56:08;96684.03;;;25.55;61.39
22862;BME280;11598;50.652;6.172;2023-09-08T11:06:09;96691.81;;;25.50;60.90
22862;BME280;11598;50.652;6.172;2023-09-08T11:16:09;96691.00;;;25.49;63.55
22862;BME280;11598;50.652;6.172;2023-09-08T11:26:11;96692.03;;;25.55;65.32
22862;BME280;11598;50.652;6.172;2023-09-08T11:36:13;96693.22;;;25.26;63.18
22862;BME280;11598;50.652;6.172;2023-09-08T11:46:16;96692.59;;;25.37;62.50
22862;BME280;11598;50.652;6.172;2023-09-08T11:56:18;96693.63;;;25.29;63.53
22862;BME280;11598;50.652;6.172;2023-09-08T12:06:18;96695.50;;;25.56;61.53
22862;BME280;11598;50.652;6.172;2023-09-08T12:16:20;96692.03;;;25.55;63.55
22862;BME280;11598;50.652;6.172;2023-09-08T12:26:24;96690.78;;;25.38;66.83
22862;BME280;11598;50.652;6.172;2023-09-08T12:36:25;96693.88;;;25.61;64.65
22862;BME280;11598;50.652;6.172;2023-09-08T12:46:25;96677.31;;;25.59;63.82
22862;BME280;11598;50.652;6.172;2023-09-08T12:56:26;96673.81;;;25.45;63.85
22862;BME280;11598;50.652;6.172;2023-09-08T13:06:26;96682.22;;;25.62;63.78
22862;BME280;11598;50.652;6.172;2023-09-08T13:16:26;96667.88;;;25.83;63.47
22862;BME280;11598;50.652;6.172;2023-09-08T13:26:27;96661.53;;;25.84;64.38
22862;BME280;11598;50.652;6.172;2023-09-08T13:36:27;96659.31;;;25.88;65.73
22862;BME280;11598;50.652;6.172;2023-09-08T13:46:28;96663.19;;;26.12;63.69
22862;BME280;11598;50.652;6.172;2023-09-08T13:56:28;96667.50;;;26.00;64.34
22862;BME280;11598;50.652;6.172;2023-09-08T14:06:29;96667.06;;;26.03;65.36
22862;BME280;11598;50.652;6.172;2023-09-08T14:16:29;96656.63;;;25.81;66.37
22862;BME280;11598;50.652;6.172;2023-09-08T14:26:29;96653.34;;;25.86;67.24
22862;BME280;11598;50.652;6.172;2023-09-08T14:36:30;96646.78;;;25.82;67.12
22862;BME280;11598;50.652;6.172;2023-09-08T14:46:30;96640.66;;;25.68;66.65
22862;BME280;11598;50.652;6.172;2023-09-08T14:56:30;96637.22;;;25.94;66.90
22862;BME280;11598;50.652;6.172;2023-09-08T15:06:31;96635.97;;;25.97;66.98
22862;BME280;11598;50.652;6.172;2023-09-08T15:16:31;96637.59;;;25.64;69.60
22862;BME280;11598;50.652;6.172;2023-09-08T15:26:32;96644.56;;;25.85;67.01
22862;BME280;11598;50.652;6.172;2023-09-08T15:36:32;96637.56;;;25.84;67.31
22862;BME280;11598;50.652;6.172;2023-09-08T15:46:32;96638.84;;;25.95;67.07
22862;BME280;11598;50.652;6.172;2023-09-08T15:56:33;96637.22;;;25.94;67.36
22862;BME280;11598;50.652;6.172;2023-09-08T16:06:33;96630.81;;;25.42;70.58
22862;BME280;11598;50.652;6.172;2023-09-08T16:16:33;96629.59;;;25.24;71.98
22862;BME280;11598;50.652;6.172;2023-09-08T16:26:36;96628.66;;;24.97;73.52
22862;BME280;11598;50.652;6.172;2023-09-08T16:36:36;96636.41;;;24.79;74.96
22862;BME280;11598;50.652;6.172;2023-09-08T16:46:36;96640.59;;;24.53;76.84
22862;BME280;11598;50.652;6.172;2023-09-08T16:56:37;96638.34;;;24.15;79.86
22862;BME280;11598;50.652;6.172;2023-09-08T17:06:37;96647.25;;;23.79;82.30
22862;BME280;11598;50.652;6.172;2023-09-08T17:16:37;96647.59;;;23.48;84.14
22862;BME280;11598;50.652;6.172;2023-09-08T17:26:38;96641.03;;;23.23;85.19
22862;BME280;11598;50.652;6.172;2023-09-08T17:36:38;96624.63;;;23.34;83.36
22862;BME280;11598;50.652;6.172;2023-09-08T17:46:38;96639.28;;;22.93;85.85
22862;BME280;11598;50.652;6.172;2023-09-08T17:56:39;96647.53;;;22.32;89.13
22862;BME280;11598;50.652;6.172;2023-09-08T18:06:39;96658.03;;;21.88;90.59
22862;BME280;11598;50.652;6.172;2023-09-08T18:16:39;96657.56;;;21.46;91.77
22862;BME280;11598;50.652;6.172;2023-09-08T18:26:40;96659.44;;;21.15;92.82
22862;BME280;11598;50.652;6.172;2023-09-08T18:36:40;96662.94;;;20.84;94.22
22862;BME280;11598;50.652;6.172;2023-09-08T18:46:40;96667.78;;;20.64;94.94
22862;BME280;11598;50.652;6.172;2023-09-08T18:56:41;96670.31;;;20.49;96.56
22862;BME280;11598;50.652;6.172;2023-09-08T19:06:41;96674.63;;;20.34;98.95
22862;BME280;11598;50.652;6.172;2023-09-08T19:16:42;96675.00;;;20.22;100.00
22862;BME280;11598;50.652;6.172;2023-09-08T19:26:44;96676.53;;;20.09;100.00
22862;BME280;11598;50.652;6.172;2023-09-08T19:36:44;96677.38;;;19.93;100.00
22862;BME280;11598;50.652;6.172;2023-09-08T19:46:45;96677.25;;;19.78;100.00
22862;BME280;11598;50.652;6.172;2023-09-08T19:56:45;96683.00;;;19.57;100.00
22862;BME280;11598;50.652;6.172;2023-09-08T20:06:45;96689.72;;;19.35;100.00
22862;BME280;11598;50.652;6.172;2023-09-08T20:16:47;96682.13;;;19.15;100.00
22862;BME280;11598;50.652;6.172;2023-09-08T20:26:47;96683.25;;;18.96;100.00
22862;BME280;11598;50.652;6.172;2023-09-08T20:36:48;96678.94;;;18.79;100.00
22862;BME280;11598;50.652;6.172;2023-09-08T20:46:48;96684.09;;;18.63;100.00
22862;BME280;11598;50.652;6.172;2023-09-08T20:56:48;96679.13;;;18.51;100.00
22862;BME280;11598;50.652;6.172;2023-09-08T21:06:49;96679.53;;;18.38;100.00
22862;BME280;11598;50.652;6.172;2023-09-08T21:16:51;96676.38;;;18.27;100.00
22862;BME280;11598;50.652;6.172;2023-09-08T21:26:52;96681.06;;;18.15;100.00
22862;BME280;11598;50.652;6.172;2023-09-08T21:36:52;96677.22;;;18.01;100.00
22862;BME280;11598;50.652;6.172;2023-09-08T21:46:52;96668.94;;;17.88;100.00
22862;BME280;11598;50.652;6.172;2023-09-08T21:56:53;96676.03;;;17.78;100.00
22862;BME280;11598;50.652;6.172;2023-09-08T22:06:53;96670.53;;;17.63;100.00
22862;BME280;11598;50.652;6.172;2023-09-08T22:16:53;96671.66;;;17.42;100.00
22862;BME280;11598;50.652;6.172;2023-09-08T22:26:54;96671.06;;;17.30;100.00
22862;BME280;11598;50.652;6.172;2023-09-08T22:36:54;96663.00;;;17.24;100.00
22862;BME280;11598;50.652;6.172;2023-09-08T22:46:54;96655.84;;;17.16;100.00
22862;BME280;11598;50.652;6.172;2023-09-08T22:56:55;96647.38;;;17.04;100.00
22862;BME280;11598;50.652;6.172;2023-09-08T23:06:57;96646.63;;;16.94;100.00
22862;BME280;11598;50.652;6.172;2023-09-08T23:16:57;96647.25;;;16.78;100.00
22862;BME280;11598;50.652;6.172;2023-09-08T23:26:57;96640.44;;;16.67;100.00
22862;BME280;11598;50.652;6.172;2023-09-08T23:36:58;96633.66;;;16.65;100.00
22862;BME280;11598;50.652;6.172;2023-09-08T23:46:58;96630.53;;;16.61;100.00
22862;BME280;11598;50.652;6.172;2023-09-08T23:56:59;96631.63;;;16.59;100.00
